MSC Poh Lin — H8FC — position and weather

sailwx.info

Track history (hours):
 
Tides and Currents Weather Stations Pressure Air Temp Water Temp Dewpoint Dewpoint Depression Visibility Wind Speed Wind Dir Waves Ship Positions

MSC Poh Lin

Last reported at 2016-May-22 17:34 UTC. Time now 2016-May-30 10:46 UTC.
Position N 09°07' W 079°47'.

Length 294 m; draft 11.4 m.

Type: Ship (hazmat cat A). MMSI: 357405000.

Date/timePositionNaut miles runAvg speedWind from/ knotsBaromVisibWave heightAir tempDewpointWater temp
2016-May-22 17:34N 09°07' W 079°47'8 7.6
2016-May-22 16:33N 09°12' W 079°54'5 4.9
2016-May-22 15:32N 09°16' W 079°55'0 0.4
2016-May-22 14:33N 09°17' W 079°55'0 0.2
2016-May-22 13:33N 09°17' W 079°55'3 3.4
2016-May-22 12:33N 09°20' W 079°55'1 1.1
2016-May-22 11:33N 09°21' W 079°54'0 0.0
2016-May-22 10:32N 09°21' W 079°54'0 0.0
2016-May-22 09:32N 09°21' W 079°54'0 0.0
2016-May-22 08:26N 09°21' W 079°54'0 0.0
2016-May-22 07:33N 09°21' W 079°54'0 0.0
2016-May-22 06:32N 09°21' W 079°54'0 0.0
2016-May-22 05:33N 09°21' W 079°54'0 0.0
2016-May-22 04:32N 09°21' W 079°54'0 0.0
2016-May-22 03:32N 09°21' W 079°54'0 0.0
2016-May-22 02:32N 09°21' W 079°54'0 0.0
2016-May-22 01:32N 09°21' W 079°54'0 0.0
2016-May-22 00:32N 09°21' W 079°54'0 0.0
2016-May-21 23:29N 09°21' W 079°54'0 0.0
2016-May-21 22:32N 09°21' W 079°54'0 0.0
2016-May-21 21:32N 09°21' W 079°54'0 0.0
2016-May-21 20:29N 09°21' W 079°54'0 0.0
2016-May-21 19:32N 09°21' W 079°54'0 0.0
2016-May-21 18:32N 09°21' W 079°54'0 0.0
2016-May-21 17:32N 09°21' W 079°54'0 0.0
2016-May-21 16:32N 09°21' W 079°54'0 0.0
2016-May-21 15:32N 09°21' W 079°54'0 0.0
2016-May-21 14:32N 09°21' W 079°54'0 0.0
2016-May-21 13:33N 09°21' W 079°54'3 2.8
2016-May-21 12:33N 09°24' W 079°55'1010.3
2016-May-21 11:33N 09°34' W 079°52'1212.4
2016-May-21 10:33N 09°45' W 079°46'  
2016-May-13 03:10N 35°41' W 027°18'1218.2
2016-May-13 02:32N 35°44' W 027°04'3817.8
2016-May-13 00:23N 35°53' W 026°18'1517.8
2016-May-12 23:33N 35°56' W 026°00'1818.1
2016-May-12 22:33N 35°59' W 025°38'1818.1
2016-May-12 21:34N 36°04' W 025°17'1818.2
2016-May-12 20:33N 36°08' W 024°55'1818.2
2016-May-12 19:34N 36°12' W 024°33'1818.1
2016-May-12 18:33N 36°16' W 024°11'  
Track history (hours):
 
Tides and Currents Weather Stations Pressure Air Temp Water Temp Dewpoint Dewpoint Depression Visibility Wind Speed Wind Dir Waves Ship Positions

MSC Poh Lin

Last reported at 2016-May-22 17:34 UTC. Time now 2016-May-30 10:46 UTC.
Position N 09°07' W 079°47'.

Length 294 m; draft 11.4 m.

Type: Ship (hazmat cat A). MMSI: 357405000.

Date/timePositionNaut miles runAvg speedWind from/ knotsBaromVisibWave heightAir tempDewpointWater temp
2016-May-22 17:34N 09°07' W 079°47'8 7.6
2016-May-22 16:33N 09°12' W 079°54'5 4.9
2016-May-22 15:32N 09°16' W 079°55'0 0.4
2016-May-22 14:33N 09°17' W 079°55'0 0.2
2016-May-22 13:33N 09°17' W 079°55'3 3.4
2016-May-22 12:33N 09°20' W 079°55'1 1.1
2016-May-22 11:33N 09°21' W 079°54'0 0.0
2016-May-22 10:32N 09°21' W 079°54'0 0.0
2016-May-22 09:32N 09°21' W 079°54'0 0.0
2016-May-22 08:26N 09°21' W 079°54'0 0.0
2016-May-22 07:33N 09°21' W 079°54'0 0.0
2016-May-22 06:32N 09°21' W 079°54'0 0.0
2016-May-22 05:33N 09°21' W 079°54'0 0.0
2016-May-22 04:32N 09°21' W 079°54'0 0.0
2016-May-22 03:32N 09°21' W 079°54'0 0.0
2016-May-22 02:32N 09°21' W 079°54'0 0.0
2016-May-22 01:32N 09°21' W 079°54'0 0.0
2016-May-22 00:32N 09°21' W 079°54'0 0.0
2016-May-21 23:29N 09°21' W 079°54'0 0.0
2016-May-21 22:32N 09°21' W 079°54'0 0.0
2016-May-21 21:32N 09°21' W 079°54'0 0.0
2016-May-21 20:29N 09°21' W 079°54'0 0.0
2016-May-21 19:32N 09°21' W 079°54'0 0.0
2016-May-21 18:32N 09°21' W 079°54'0 0.0
2016-May-21 17:32N 09°21' W 079°54'0 0.0
2016-May-21 16:32N 09°21' W 079°54'0 0.0
2016-May-21 15:32N 09°21' W 079°54'0 0.0
2016-May-21 14:32N 09°21' W 079°54'0 0.0
2016-May-21 13:33N 09°21' W 079°54'3 2.8
2016-May-21 12:33N 09°24' W 079°55'1010.3
2016-May-21 11:33N 09°34' W 079°52'1212.4
2016-May-21 10:33N 09°45' W 079°46'  
2016-May-13 03:10N 35°41' W 027°18'1218.2
2016-May-13 02:32N 35°44' W 027°04'3817.8
2016-May-13 00:23N 35°53' W 026°18'1517.8
2016-May-12 23:33N 35°56' W 026°00'1818.1
2016-May-12 22:33N 35°59' W 025°38'1818.1
2016-May-12 21:34N 36°04' W 025°17'1818.2
2016-May-12 20:33N 36°08' W 024°55'1818.2
2016-May-12 19:34N 36°12' W 024°33'1818.1
2016-May-12 18:33N 36°16' W 024°11'  

Dump ship's entire track history